Time;durP1;ratioP1;P1;durP2;ratioP2;P2;SDS_P1;SDS_P2;PMS_P1;PMS_P2;Temp;Humidity;BMP_temperature;BMP_pressure;BME280_temperature;BME280_humidity;BME280_pressure;Samples;Min_cycle;Max_cycle;Signal;HPM_P1;HPM_P2
2023/04/12 00:08:58;;;;;;;7.00;3.80;;;;;;;2.83;77.60;99781.09;30749667;28;114030;-62
2023/04/12 00:24:00;;;;;;;5.30;3.08;;;;;;;2.69;77.07;99769.13;30751037;28;96752;-63
2023/04/12 00:39:00;;;;;;;6.07;3.25;;;;;;;2.61;77.47;99766.31;30749483;28;96611;-62
2023/04/12 00:54:02;;;;;;;7.07;3.22;;;;;;;2.53;77.70;99776.63;30748001;28;97357;-62
2023/04/12 01:09:21;;;;;;;12.40;2.85;;;;;;;2.42;78.17;99776.69;30745594;28;96987;-62
2023/04/12 01:24:43;;;;;;;9.98;2.83;;;;;;;2.37;77.80;99754.22;30745182;28;96863;-62
2023/04/12 01:39:43;;;;;;;6.65;3.00;;;;;;;2.33;78.16;99768.59;30743662;28;97436;-62
2023/04/12 01:54:47;;;;;;;9.95;3.58;;;;;;;2.28;78.21;99759.44;30742074;28;96661;-62
2023/04/12 02:09:47;;;;;;;8.97;3.70;;;;;;;2.14;78.22;99747.44;30740283;28;96790;-62
2023/04/12 02:24:48;;;;;;;6.53;3.40;;;;;;;2.06;78.62;99734.09;30739345;28;97044;-62
2023/04/12 02:39:48;;;;;;;7.20;3.67;;;;;;;1.94;77.86;99726.28;30737787;28;97074;-62
2023/04/12 02:54:50;;;;;;;7.15;4.35;;;;;;;1.90;78.22;99714.34;30735575;28;96851;-63
2023/04/12 03:09:50;;;;;;;10.52;5.00;;;;;;;1.81;77.93;99705.41;30734837;28;96964;-62
2023/04/12 03:24:50;;;;;;;10.75;5.32;;;;;;;1.72;78.69;99705.34;30732432;28;97430;-62
2023/04/12 03:39:51;;;;;;;8.43;4.18;;;;;;;1.54;78.91;99707.66;30730923;28;113341;-62
2023/04/12 03:54:51;;;;;;;10.88;4.18;;;;;;;1.43;79.09;99716.41;30727678;28;110535;-62
2023/04/12 04:09:53;;;;;;;7.05;3.45;;;;;;;1.32;78.89;99715.47;30727486;28;96589;-62
2023/04/12 04:24:54;;;;;;;6.55;3.97;;;;;;;1.26;78.59;99710.72;30718878;28;96812;-62
2023/04/12 04:39:55;;;;;;;10.82;4.40;;;;;;;1.49;79.55;99711.50;30735992;28;96937;-61
2023/04/12 04:54:56;;;;;;;12.40;4.30;;;;;;;1.89;79.23;99710.06;30641090;28;97829;-66
2023/04/12 05:09:56;;;;;;;8.60;3.33;;;;;;;2.67;79.77;99702.66;30637820;28;97162;-64
2023/04/12 05:24:57;;;;;;;7.60;4.03;;;;;;;3.48;79.37;99678.06;30667789;28;97232;-63
2023/04/12 05:39:57;;;;;;;6.45;3.85;;;;;;;4.53;78.98;99680.91;30726486;28;98344;-64
2023/04/12 05:54:58;;;;;;;7.00;3.90;;;;;;;5.56;77.42;99689.56;30727321;28;97352;-63
2023/04/12 06:09:59;;;;;;;7.97;4.20;;;;;;;6.60;75.85;99687.22;30729912;28;96671;-66
2023/04/12 06:25:00;;;;;;;9.50;4.20;;;;;;;7.77;74.92;99676.84;30693079;28;97927;-63
2023/04/12 06:40:01;;;;;;;9.30;4.10;;;;;;;8.74;73.33;99670.78;30626882;28;97195;-64
2023/04/12 06:55:01;;;;;;;8.27;4.07;;;;;;;9.91;71.75;99664.63;30614030;28;102782;-65
2023/04/12 07:10:03;;;;;;;11.30;3.40;;;;;;;10.99;68.91;99671.41;30608067;28;97261;-66
2023/04/12 07:25:08;;;;;;;8.30;4.43;;;;;;;11.89;66.81;99643.63;30606945;28;96707;-64
2023/04/12 07:40:09;;;;;;;8.50;3.80;;;;;;;12.16;64.79;99636.69;30626564;28;96954;-65
2023/04/12 07:55:09;;;;;;;6.25;3.05;;;;;;;12.49;61.80;99620.88;30615177;28;98341;-63
2023/04/12 08:10:10;;;;;;;6.95;3.40;;;;;;;12.82;60.50;99611.34;30617019;28;97425;-65
2023/04/12 08:25:10;;;;;;;5.90;2.10;;;;;;;14.33;54.89;99601.28;30624183;28;109002;-64
2023/04/12 08:40:10;;;;;;;6.30;2.60;;;;;;;15.00;51.78;99595.72;30622368;28;97007;-62
2023/04/12 08:55:11;;;;;;;5.72;2.38;;;;;;;16.24;48.50;99573.78;30645708;28;97084;-64
2023/04/12 09:10:29;;;;;;;2.80;1.65;;;;;;;19.59;44.40;99579.75;30694314;28;96995;-66
2023/04/12 09:25:36;;;;;;;4.77;1.87;;;;;;;20.72;37.10;99558.13;30700660;28;97461;-66
2023/04/12 09:40:37;;;;;;;6.30;2.50;;;;;;;19.92;35.57;99540.31;30622563;28;97490;-64
2023/04/12 09:55:37;;;;;;;4.90;2.03;;;;;;;30.71;25.58;99533.09;30626193;28;97150;-64
2023/04/12 10:10:37;;;;;;;4.95;1.50;;;;;;;36.80;16.86;99512.69;30613969;28;97411;-63
2023/04/12 10:25:40;;;;;;;2.83;1.17;;;;;;;37.84;14.24;99486.97;30614985;28;96729;-70
2023/04/12 10:41:05;;;;;;;3.67;1.40;;;;;;;32.85;15.85;99476.72;30649162;28;96721;-64
2023/04/12 10:56:42;;;;;;;2.17;1.07;;;;;;;33.25;16.53;99454.13;30731492;28;98039;-65
2023/04/12 11:11:42;;;;;;;1.83;1.13;;;;;;;41.61;10.96;99414.34;30718693;28;97509;-63
2023/04/12 11:26:44;;;;;;;4.43;1.13;;;;;;;37.49;11.74;99410.13;30729881;28;97065;-62
2023/04/12 11:41:45;;;;;;;3.93;1.30;;;;;;;33.55;13.43;99376.66;30734776;28;98540;-66
2023/04/12 11:56:46;;;;;;;3.17;1.50;;;;;;;24.75;20.86;99355.09;30748016;28;96613;-65
2023/04/12 12:11:46;;;;;;;;;;;;;;;21.92;24.55;99331.25;30747310;28;108361;-63
2023/04/12 12:26:49;;;;;;;4.07;1.80;;;;;;;21.25;25.43;99310.03;30746870;28;96691;-64
2023/04/12 12:41:55;;;;;;;4.73;1.90;;;;;;;18.68;28.84;99288.31;30744066;28;96851;-65
2023/04/12 12:56:56;;;;;;;5.27;2.10;;;;;;;17.02;31.08;99278.16;30739673;28;97303;-64
2023/04/12 13:11:56;;;;;;;3.30;1.40;;;;;;;16.47;32.12;99245.16;30739731;28;97361;-64
2023/04/12 13:26:57;;;;;;;2.42;1.50;;;;;;;16.11;31.92;99236.19;30739481;28;96729;-62
2023/04/12 13:41:57;;;;;;;10.70;2.05;;;;;;;16.01;33.63;99192.97;30732459;28;97480;-64
2023/04/12 13:56:58;;;;;;;1.98;1.27;;;;;;;15.73;33.47;99180.94;30728483;28;97502;-63
2023/04/12 14:12:00;;;;;;;2.97;1.17;;;;;;;15.10;34.30;99166.88;30731314;28;96611;-64
2023/04/12 14:27:01;;;;;;;2.13;1.20;;;;;;;14.48;35.21;99143.63;30734678;28;96711;-64
2023/04/12 14:42:02;;;;;;;3.00;1.27;;;;;;;14.19;36.34;99121.84;30733546;28;96756;-64
2023/04/12 14:57:03;;;;;;;2.83;1.20;;;;;;;13.69;38.12;99111.13;30731314;28;97719;-63
2023/04/12 15:12:03;;;;;;;5.15;1.73;;;;;;;13.40;39.45;99108.03;30731949;28;96638;-63
2023/04/12 15:27:04;;;;;;;2.92;1.75;;;;;;;13.03;40.30;99089.06;30729815;28;96603;-65
2023/04/12 15:42:04;;;;;;;2.40;1.20;;;;;;;12.84;41.82;99075.56;30728838;28;97096;-63
2023/04/12 15:57:10;;;;;;;4.25;1.70;;;;;;;12.63;42.55;99051.81;30719115;28;96939;-65
2023/04/12 16:12:10;;;;;;;4.33;1.70;;;;;;;12.30;42.87;99063.44;30727081;28;96668;-64
2023/04/12 16:27:11;;;;;;;3.10;1.45;;;;;;;12.22;43.95;99074.31;30664443;28;96939;-64
2023/04/12 16:42:12;;;;;;;4.13;2.00;;;;;;;11.96;44.88;99052.81;30613302;28;97177;-63
2023/04/12 16:57:12;;;;;;;3.42;2.00;;;;;;;11.55;45.11;99040.50;30611297;28;97759;-63
2023/04/12 17:12:13;;;;;;;6.70;2.10;;;;;;;11.25;47.17;99035.53;30613405;28;96790;-63
2023/04/12 17:27:13;;;;;;;3.13;2.10;;;;;;;10.95;47.93;99027.09;30610551;28;97233;-64
2023/04/12 17:42:14;;;;;;;8.90;3.17;;;;;;;10.48;49.37;99040.22;30608728;28;96842;-63
2023/04/12 17:57:16;;;;;;;8.88;4.57;;;;;;;10.06;50.28;99029.53;30626673;28;97549;-63
2023/04/12 18:12:16;;;;;;;12.40;4.90;;;;;;;9.64;51.43;99033.94;30616661;28;97045;-65
2023/04/12 18:27:17;;;;;;;11.70;5.07;;;;;;;9.29;52.21;99047.13;30615543;28;97330;-62
2023/04/12 18:42:18;;;;;;;7.30;4.78;;;;;;;9.13;52.89;99058.81;30656540;28;97781;-63
2023/04/12 18:57:18;;;;;;;10.50;6.07;;;;;;;9.07;53.25;99054.28;30663286;28;96912;-63
2023/04/12 19:12:19;;;;;;;10.75;5.90;;;;;;;9.06;53.34;99045.50;30723567;28;96778;-63
2023/04/12 19:27:21;;;;;;;7.40;4.90;;;;;;;9.13;52.96;99037.56;30732280;28;97235;-62
2023/04/12 19:42:22;;;;;;;8.30;4.40;;;;;;;9.09;52.47;99029.16;30730941;28;96690;-62
2023/04/12 19:57:23;;;;;;;11.60;6.32;;;;;;;9.08;51.95;99014.22;30722509;28;97291;-63
2023/04/12 20:12:24;;;;;;;12.77;7.57;;;;;;;9.02;52.15;99003.53;30688147;28;97888;-63
2023/04/12 20:27:26;;;;;;;15.52;7.05;;;;;;;8.90;53.00;98995.22;30702102;28;97091;-63
2023/04/12 20:42:27;;;;;;;10.83;7.33;;;;;;;8.76;53.75;98983.66;30625819;28;96698;-63
2023/04/12 20:57:27;;;;;;;11.82;6.68;;;;;;;8.62;54.77;98978.22;30625428;28;97156;-63
2023/04/12 21:12:30;;;;;;;15.10;7.85;;;;;;;8.48;55.25;98954.38;30623837;28;96779;-63
2023/04/12 21:27:32;;;;;;;10.90;8.27;;;;;;;8.31;55.81;98930.69;30623830;28;97500;-63
2023/04/12 21:42:33;;;;;;;11.47;8.13;;;;;;;8.00;56.26;98926.41;30622522;28;96651;-63
2023/04/12 21:57:34;;;;;;;18.13;9.80;;;;;;;7.73;56.69;98915.44;30621048;28;96786;-63
2023/04/12 22:12:38;;;;;;;18.60;10.53;;;;;;;7.71;57.66;98928.06;30689703;28;96681;-63
2023/04/12 22:27:38;;;;;;;13.33;9.57;;;;;;;7.50;58.11;98927.97;30738432;28;96738;-64
2023/04/12 22:42:46;;;;;;;18.55;10.00;;;;;;;7.59;58.78;98926.88;30738453;28;96628;-64
2023/04/12 22:57:46;;;;;;;15.67;9.97;;;;;;;7.63;58.84;98917.56;30736436;28;97340;-63
2023/04/12 23:12:48;;;;;;;13.80;10.15;;;;;;;7.68;58.34;98912.53;30735293;28;96800;-64
2023/04/12 23:27:49;;;;;;;17.47;9.77;;;;;;;7.72;59.04;98899.72;30733703;28;97270;-63
2023/04/12 23:42:49;;;;;;;17.33;10.33;;;;;;;7.73;58.79;98873.03;30743884;28;97435;-63
2023/04/12 23:57:50;;;;;;;13.65;9.73;;;;;;;7.68;58.67;98854.22;30753961;28;97253;-63
